Clarksdale, Missouri
Current Conditions -  °F | °C
As of 8:53 PM on Saturday 25 Oct 2014 (Local Time) from KSTJ Reporting Station
Clear Clear  
Wind Chill: 57°   Ceiling: Unl
Heat Index: 57°   Visibility: 10mi
Dew Point: 48°   Wind: 3mph
Humidity: 72%   Direction: 30°NNE
Pressure: 30.01"   Gusts: NA
Location:  39.81°N, 94.55°W
Report Text: KSTJ 260153Z AUTO 03003KT 10SM R35/5500VP6000FT CLR 14/09 A3001 RMK AO2 SLP162 T01390089
Loading
Personal Weather Stations






























Interactive Weather Map
Tropical Storm Tracking
New forecast layout! Learn more

10-Day Weather Forecast

Advertisements
Track Severe Weather on mobile